Time;durP1;ratioP1;P1;durP2;ratioP2;P2;SDS_P1;SDS_P2;PMS_P1;PMS_P2;Temp;Humidity;BMP_temperature;BMP_pressure;BME280_temperature;BME280_humidity;BME280_pressure;Samples;Min_cycle;Max_cycle;Signal;HPM_P1;HPM_P2
2021/12/19 21:46:55;;;;;;;25.05;4.30;;;14.80;87.10;;;;;;4243306;27;20137;-62
2021/12/19 21:49:17;;;;;;;21.23;3.78;;;14.70;89.40;;;;;;4223886;28;20484;-62
2021/12/19 21:51:40;;;;;;;24.77;3.90;;;14.70;88.90;;;;;;4240244;28;20431;-61
2021/12/19 21:54:03;;;;;;;27.30;5.10;;;14.70;87.70;;;;;;4240182;28;20043;-61
2021/12/19 21:56:25;;;;;;;25.45;4.93;;;14.80;86.90;;;;;;4240134;28;20051;-62
2021/12/19 21:58:50;;;;;;;26.23;3.75;;;14.80;85.50;;;;;;4239140;28;20049;-62
2021/12/19 22:01:16;;;;;;;17.92;4.25;;;14.80;85.40;;;;;;4239621;28;20047;-61
2021/12/19 22:03:39;;;;;;;31.00;5.10;;;14.90;85.60;;;;;;4257133;27;20043;-62
2021/12/19 22:06:02;;;;;;;23.67;4.15;;;14.90;85.90;;;;;;4256840;27;20479;-62
2021/12/19 22:08:24;;;;;;;19.63;4.35;;;14.90;85.90;;;;;;4257313;27;20080;-62
2021/12/19 22:10:47;;;;;;;34.50;5.60;;;14.90;85.60;;;;;;4257030;27;20131;-62
2021/12/19 22:13:27;;;;;;;26.17;4.15;;;15.00;85.30;;;;;;4221225;28;20063;-61
2021/12/19 22:15:49;;;;;;;22.35;3.22;;;15.00;84.40;;;;;;4206290;28;20051;-61
2021/12/19 22:18:15;;;;;;;20.75;3.50;;;15.00;84.50;;;;;;4221821;28;20052;-61
2021/12/19 22:20:41;;;;;;;26.30;4.38;;;15.00;84.50;;;;;;4222653;28;20058;-61
2021/12/19 22:23:04;;;;;;;31.10;3.95;;;15.00;84.70;;;;;;4222037;28;20048;-61
2021/12/19 22:25:26;;;;;;;30.75;5.53;;;15.00;84.70;;;;;;4227539;28;20071;-61
2021/12/19 22:27:53;;;;;;;26.70;4.25;;;15.10;84.70;;;;;;4224286;27;20051;-62
2021/12/19 22:30:15;;;;;;;20.00;3.53;;;15.00;84.70;;;;;;4256281;27;20062;-62
2021/12/19 22:32:38;;;;;;;25.00;3.17;;;15.10;84.80;;;;;;4254942;27;20533;-61
2021/12/19 22:35:00;;;;;;;17.88;3.70;;;15.10;84.20;;;;;;4256521;27;20447;-61
2021/12/19 22:37:23;;;;;;;24.08;5.40;;;15.10;84.60;;;;;;4257024;27;20490;-61
2021/12/19 22:39:46;;;;;;;16.92;4.00;;;15.10;84.30;;;;;;4248551;27;20055;-61
2021/12/19 22:42:08;;;;;;;28.30;4.38;;;15.10;84.80;;;;;;4239665;27;20452;-61
2021/12/19 22:44:30;;;;;;;23.67;4.88;;;15.10;85.00;;;;;;4239080;27;20044;-61
2021/12/19 22:46:53;;;;;;;20.58;4.45;;;15.10;84.90;;;;;;4239507;27;20058;-62
2021/12/19 22:49:35;;;;;;;22.13;3.72;;;15.10;85.00;;;;;;4237934;27;20048;-61
2021/12/19 22:51:58;;;;;;;26.60;4.60;;;15.10;85.20;;;;;;4239398;27;20051;-61
2021/12/19 22:54:21;;;;;;;22.13;4.18;;;15.10;85.00;;;;;;4239597;27;20055;-62
2021/12/19 22:56:44;;;;;;;28.75;5.78;;;15.00;85.00;;;;;;4236753;27;20410;-61
2021/12/19 22:59:06;;;;;;;24.27;4.50;;;15.00;85.40;;;;;;4226379;27;20122;-61
2021/12/19 23:01:28;;;;;;;20.15;3.35;;;15.00;85.40;;;;;;4227879;28;20425;-60
2021/12/19 23:03:50;;;;;;;27.45;4.72;;;15.10;86.60;;;;;;4194363;28;20074;-61
2021/12/19 23:06:13;;;;;;;30.25;4.93;;;15.10;86.00;;;;;;4209858;28;20048;-61
2021/12/19 23:08:35;;;;;;;23.42;3.90;;;15.00;85.80;;;;;;4210530;28;20048;-60
2021/12/19 23:11:05;;;;;;;25.27;4.57;;;15.00;85.90;;;;;;4210935;28;20068;-61
2021/12/19 23:13:29;;;;;;;25.40;4.75;;;15.00;85.70;;;;;;4211383;28;20040;-61
2021/12/19 23:15:57;;;;;;;20.50;4.07;;;15.00;86.10;;;;;;4210996;28;20056;-62
2021/12/19 23:18:19;;;;;;;21.95;4.25;;;15.00;86.10;;;;;;4214636;27;20039;-61
2021/12/19 23:20:41;;;;;;;20.55;4.28;;;15.00;86.10;;;;;;4227616;27;20134;-60
2021/12/19 23:23:04;;;;;;;20.75;4.90;;;15.00;85.90;;;;;;4227301;27;20568;-60
2021/12/19 23:25:27;;;;;;;24.60;5.60;;;15.00;86.00;;;;;;4227553;27;20043;-65
2021/12/19 23:27:53;;;;;;;15.65;4.43;;;15.00;86.30;;;;;;4227332;27;20063;-63
2021/12/19 23:30:16;;;;;;;19.65;3.97;;;15.00;86.30;;;;;;4210436;28;20054;-62
2021/12/19 23:32:52;;;;;;;25.42;5.43;;;15.00;86.60;;;;;;4210237;28;20051;-62
2021/12/19 23:35:14;;;;;;;23.15;3.92;;;15.00;86.60;;;;;;4225312;27;20055;-65
2021/12/19 23:37:42;;;;;;;24.15;4.72;;;15.00;86.80;;;;;;4242370;27;20050;-61
2021/12/19 23:40:15;;;;;;;17.98;3.58;;;15.00;86.70;;;;;;4244332;27;20055;-62
2021/12/19 23:42:52;;;;;;;17.13;3.85;;;15.00;86.60;;;;;;4226721;27;20388;-60
2021/12/19 23:45:21;;;;;;;14.43;3.70;;;15.00;86.80;;;;;;4226552;27;20487;-63
2021/12/19 23:47:43;;;;;;;25.95;4.70;;;15.00;86.90;;;;;;4210538;28;20101;-61
2021/12/19 23:50:09;;;;;;;23.73;4.68;;;14.90;86.80;;;;;;4210093;28;20484;-60
2021/12/19 23:52:31;;;;;;;21.98;4.03;;;15.00;86.70;;;;;;4238061;27;20443;-61
2021/12/19 23:54:56;;;;;;;25.38;5.43;;;15.00;86.80;;;;;;4241946;27;20054;-61
2021/12/19 23:57:18;;;;;;;22.75;3.80;;;14.90;86.80;;;;;;4243866;27;20099;-61
2021/12/19 23:59:40;;;;;;;22.40;4.05;;;14.90;86.70;;;;;;4243877;27;20043;-60
